Highland, Nebraska
Current Conditions -  °F | °C
As of 9:15 AM on Wednesday 26 Nov 2014 (Local Time) from KBIE Reporting Station
Broken Clouds Broken Clouds  
Wind Chill: 20°   Ceiling: 2200
Heat Index: 34°   Visibility: 10mi
Dew Point: 28°   Wind: 30mph
Humidity: 78%   Direction: 320°NW
Pressure: 30.05"   Gusts: 37mph
Location:  40.4797°N, 96.7417°W
Report Text: KBIE 261515Z AUTO 32026G32KT 10SM BKN022 BKN026 01/M02 A3005 RMK AO2 T00111023
Loading
Personal Weather Stations






























Interactive Weather Map New forecast layout! Learn more

10-Day Weather Forecast

Advertisements
Track Severe Weather on mobile